sensor_id;sensor_type;location;lat;lon;timestamp;P1;durP1;ratioP1;P2;durP2;ratioP2
18917;SDS011;9591;52.742;13.650;2023-04-28T00:02:05;4.60;;;2.83;;
18917;SDS011;9591;52.742;13.650;2023-04-28T00:04:53;4.00;;;3.03;;
18917;SDS011;9591;52.742;13.650;2023-04-28T00:08:04;6.70;;;3.40;;
18917;SDS011;9591;52.742;13.650;2023-04-28T00:11:02;4.10;;;2.67;;
18917;SDS011;9591;52.742;13.650;2023-04-28T00:13:50;3.27;;;2.87;;
18917;SDS011;9591;52.742;13.650;2023-04-28T00:17:02;5.50;;;3.07;;
18917;SDS011;9591;52.742;13.650;2023-04-28T00:19:53;3.30;;;2.93;;
18917;SDS011;9591;52.742;13.650;2023-04-28T00:22:40;3.47;;;3.03;;
18917;SDS011;9591;52.742;13.650;2023-04-28T00:25:28;3.80;;;2.97;;
18917;SDS011;9591;52.742;13.650;2023-04-28T00:28:15;4.77;;;3.20;;
18917;SDS011;9591;52.742;13.650;2023-04-28T00:31:18;4.27;;;2.97;;
18917;SDS011;9591;52.742;13.650;2023-04-28T00:34:04;5.77;;;2.93;;
18917;SDS011;9591;52.742;13.650;2023-04-28T00:36:51;3.03;;;2.50;;
18917;SDS011;9591;52.742;13.650;2023-04-28T00:39:38;3.83;;;2.97;;
18917;SDS011;9591;52.742;13.650;2023-04-28T00:42:32;3.60;;;3.10;;
18917;SDS011;9591;52.742;13.650;2023-04-28T00:45:20;7.50;;;3.20;;
18917;SDS011;9591;52.742;13.650;2023-04-28T00:48:19;4.70;;;3.20;;
18917;SDS011;9591;52.742;13.650;2023-04-28T00:51:07;6.50;;;3.50;;
18917;SDS011;9591;52.742;13.650;2023-04-28T00:53:58;3.70;;;2.80;;
18917;SDS011;9591;52.742;13.650;2023-04-28T00:56:45;4.93;;;3.60;;
18917;SDS011;9591;52.742;13.650;2023-04-28T00:59:34;4.13;;;3.57;;
18917;SDS011;9591;52.742;13.650;2023-04-28T01:02:21;6.23;;;3.23;;
18917;SDS011;9591;52.742;13.650;2023-04-28T01:05:09;3.80;;;2.90;;
18917;SDS011;9591;52.742;13.650;2023-04-28T01:07:57;4.10;;;3.27;;
18917;SDS011;9591;52.742;13.650;2023-04-28T01:10:44;6.27;;;3.23;;
18917;SDS011;9591;52.742;13.650;2023-04-28T01:13:45;4.63;;;3.00;;
18917;SDS011;9591;52.742;13.650;2023-04-28T01:16:33;4.67;;;3.67;;
18917;SDS011;9591;52.742;13.650;2023-04-28T01:19:23;5.23;;;3.40;;
18917;SDS011;9591;52.742;13.650;2023-04-28T01:22:10;8.07;;;3.80;;
18917;SDS011;9591;52.742;13.650;2023-04-28T01:25:02;9.87;;;3.57;;
18917;SDS011;9591;52.742;13.650;2023-04-28T01:27:50;5.37;;;3.03;;
18917;SDS011;9591;52.742;13.650;2023-04-28T01:30:37;3.60;;;2.63;;
18917;SDS011;9591;52.742;13.650;2023-04-28T01:33:24;4.60;;;3.30;;
18917;SDS011;9591;52.742;13.650;2023-04-28T01:36:11;3.70;;;3.40;;
18917;SDS011;9591;52.742;13.650;2023-04-28T01:38:58;3.60;;;3.10;;
18917;SDS011;9591;52.742;13.650;2023-04-28T01:41:46;3.83;;;2.77;;
18917;SDS011;9591;52.742;13.650;2023-04-28T01:44:32;3.10;;;2.80;;
18917;SDS011;9591;52.742;13.650;2023-04-28T01:47:19;4.47;;;2.93;;
18917;SDS011;9591;52.742;13.650;2023-04-28T01:50:06;5.50;;;3.37;;
18917;SDS011;9591;52.742;13.650;2023-04-28T01:52:53;4.50;;;3.10;;
18917;SDS011;9591;52.742;13.650;2023-04-28T01:55:40;3.33;;;2.60;;
18917;SDS011;9591;52.742;13.650;2023-04-28T01:58:28;10.03;;;2.90;;
18917;SDS011;9591;52.742;13.650;2023-04-28T02:01:15;4.07;;;2.53;;
18917;SDS011;9591;52.742;13.650;2023-04-28T02:04:02;2.37;;;2.27;;
18917;SDS011;9591;52.742;13.650;2023-04-28T02:06:55;2.53;;;2.33;;
18917;SDS011;9591;52.742;13.650;2023-04-28T02:09:44;2.70;;;2.50;;
18917;SDS011;9591;52.742;13.650;2023-04-28T02:12:30;4.40;;;3.10;;
18917;SDS011;9591;52.742;13.650;2023-04-28T02:15:19;3.60;;;2.63;;
18917;SDS011;9591;52.742;13.650;2023-04-28T02:18:05;3.80;;;2.77;;
18917;SDS011;9591;52.742;13.650;2023-04-28T02:20:56;2.50;;;2.30;;
18917;SDS011;9591;52.742;13.650;2023-04-28T02:23:43;4.23;;;2.57;;
18917;SDS011;9591;52.742;13.650;2023-04-28T02:26:32;3.07;;;2.70;;
18917;SDS011;9591;52.742;13.650;2023-04-28T02:29:31;3.30;;;2.70;;
18917;SDS011;9591;52.742;13.650;2023-04-28T02:32:22;4.73;;;3.10;;
18917;SDS011;9591;52.742;13.650;2023-04-28T02:35:11;4.00;;;2.90;;
18917;SDS011;9591;52.742;13.650;2023-04-28T02:37:58;2.97;;;2.73;;
18917;SDS011;9591;52.742;13.650;2023-04-28T02:40:45;3.03;;;2.50;;
18917;SDS011;9591;52.742;13.650;2023-04-28T02:43:32;4.27;;;3.03;;
18917;SDS011;9591;52.742;13.650;2023-04-28T02:46:20;3.27;;;2.90;;
18917;SDS011;9591;52.742;13.650;2023-04-28T02:49:12;3.87;;;2.67;;
18917;SDS011;9591;52.742;13.650;2023-04-28T02:52:00;3.07;;;2.60;;
18917;SDS011;9591;52.742;13.650;2023-04-28T02:54:47;4.43;;;2.67;;
18917;SDS011;9591;52.742;13.650;2023-04-28T02:57:40;3.33;;;3.00;;
18917;SDS011;9591;52.742;13.650;2023-04-28T03:00:27;3.83;;;2.57;;
18917;SDS011;9591;52.742;13.650;2023-04-28T03:03:15;5.33;;;2.90;;
18917;SDS011;9591;52.742;13.650;2023-04-28T03:06:04;2.97;;;2.77;;
18917;SDS011;9591;52.742;13.650;2023-04-28T03:08:51;2.87;;;2.63;;
18917;SDS011;9591;52.742;13.650;2023-04-28T03:11:39;2.80;;;2.30;;
18917;SDS011;9591;52.742;13.650;2023-04-28T03:14:26;3.93;;;2.70;;
18917;SDS011;9591;52.742;13.650;2023-04-28T03:17:13;3.73;;;3.17;;
18917;SDS011;9591;52.742;13.650;2023-04-28T03:20:00;7.07;;;2.70;;
18917;SDS011;9591;52.742;13.650;2023-04-28T03:22:50;3.37;;;2.90;;
18917;SDS011;9591;52.742;13.650;2023-04-28T03:25:37;4.00;;;2.70;;
18917;SDS011;9591;52.742;13.650;2023-04-28T03:28:24;2.80;;;2.60;;
18917;SDS011;9591;52.742;13.650;2023-04-28T03:31:11;5.30;;;3.17;;
18917;SDS011;9591;52.742;13.650;2023-04-28T03:33:57;3.73;;;3.33;;
18917;SDS011;9591;52.742;13.650;2023-04-28T03:36:44;3.27;;;2.90;;
18917;SDS011;9591;52.742;13.650;2023-04-28T03:39:41;4.33;;;3.17;;
18917;SDS011;9591;52.742;13.650;2023-04-28T03:42:28;5.93;;;3.20;;
18917;SDS011;9591;52.742;13.650;2023-04-28T03:45:25;2.90;;;2.60;;
18917;SDS011;9591;52.742;13.650;2023-04-28T03:48:11;5.93;;;2.97;;
18917;SDS011;9591;52.742;13.650;2023-04-28T03:50:58;5.27;;;3.10;;
18917;SDS011;9591;52.742;13.650;2023-04-28T03:53:45;4.57;;;3.00;;
18917;SDS011;9591;52.742;13.650;2023-04-28T03:56:34;4.00;;;3.10;;
18917;SDS011;9591;52.742;13.650;2023-04-28T03:59:33;5.73;;;2.97;;
18917;SDS011;9591;52.742;13.650;2023-04-28T04:02:20;3.13;;;2.83;;
18917;SDS011;9591;52.742;13.650;2023-04-28T04:05:07;3.27;;;2.67;;
18917;SDS011;9591;52.742;13.650;2023-04-28T04:07:54;7.77;;;2.70;;
18917;SDS011;9591;52.742;13.650;2023-04-28T04:10:41;3.80;;;2.70;;
18917;SDS011;9591;52.742;13.650;2023-04-28T04:13:29;5.27;;;2.80;;
18917;SDS011;9591;52.742;13.650;2023-04-28T04:16:16;3.13;;;2.83;;
18917;SDS011;9591;52.742;13.650;2023-04-28T04:19:03;9.23;;;4.00;;
18917;SDS011;9591;52.742;13.650;2023-04-28T04:22:01;7.73;;;3.93;;
18917;SDS011;9591;52.742;13.650;2023-04-28T04:24:48;5.33;;;3.00;;
18917;SDS011;9591;52.742;13.650;2023-04-28T04:27:35;3.73;;;2.67;;
18917;SDS011;9591;52.742;13.650;2023-04-28T04:30:23;4.03;;;3.17;;
18917;SDS011;9591;52.742;13.650;2023-04-28T04:33:10;3.27;;;2.97;;
18917;SDS011;9591;52.742;13.650;2023-04-28T04:35:57;4.60;;;3.10;;
18917;SDS011;9591;52.742;13.650;2023-04-28T04:38:44;3.67;;;3.00;;
18917;SDS011;9591;52.742;13.650;2023-04-28T04:41:34;4.43;;;2.70;;
18917;SDS011;9591;52.742;13.650;2023-04-28T04:44:43;4.90;;;3.03;;
18917;SDS011;9591;52.742;13.650;2023-04-28T04:47:45;3.63;;;2.50;;
18917;SDS011;9591;52.742;13.650;2023-04-28T04:50:34;4.17;;;2.67;;
18917;SDS011;9591;52.742;13.650;2023-04-28T04:53:23;3.20;;;2.47;;
18917;SDS011;9591;52.742;13.650;2023-04-28T04:56:13;4.97;;;3.00;;
18917;SDS011;9591;52.742;13.650;2023-04-28T04:59:01;6.00;;;3.17;;
18917;SDS011;9591;52.742;13.650;2023-04-28T05:02:00;2.67;;;2.40;;
18917;SDS011;9591;52.742;13.650;2023-04-28T05:04:50;9.07;;;3.07;;
18917;SDS011;9591;52.742;13.650;2023-04-28T05:07:53;3.83;;;2.40;;
18917;SDS011;9591;52.742;13.650;2023-04-28T05:10:40;2.30;;;2.20;;
18917;SDS011;9591;52.742;13.650;2023-04-28T05:13:27;5.30;;;3.00;;
18917;SDS011;9591;52.742;13.650;2023-04-28T05:16:19;4.83;;;2.17;;
18917;SDS011;9591;52.742;13.650;2023-04-28T05:19:27;4.77;;;2.70;;
18917;SDS011;9591;52.742;13.650;2023-04-28T05:22:17;5.43;;;2.43;;
18917;SDS011;9591;52.742;13.650;2023-04-28T05:25:05;3.13;;;2.40;;
18917;SDS011;9591;52.742;13.650;2023-04-28T05:27:53;2.83;;;2.50;;
18917;SDS011;9591;52.742;13.650;2023-04-28T05:30:42;1.90;;;1.80;;
18917;SDS011;9591;52.742;13.650;2023-04-28T05:33:30;2.33;;;1.90;;
18917;SDS011;9591;52.742;13.650;2023-04-28T05:36:17;2.63;;;2.00;;
18917;SDS011;9591;52.742;13.650;2023-04-28T05:39:05;6.97;;;1.90;;
18917;SDS011;9591;52.742;13.650;2023-04-28T05:41:52;5.13;;;2.60;;
18917;SDS011;9591;52.742;13.650;2023-04-28T05:44:39;5.87;;;2.93;;
18917;SDS011;9591;52.742;13.650;2023-04-28T05:47:27;4.57;;;2.73;;
18917;SDS011;9591;52.742;13.650;2023-04-28T05:50:15;5.23;;;2.93;;
18917;SDS011;9591;52.742;13.650;2023-04-28T05:53:02;3.73;;;2.67;;
18917;SDS011;9591;52.742;13.650;2023-04-28T05:55:50;5.00;;;2.87;;
18917;SDS011;9591;52.742;13.650;2023-04-28T05:58:38;8.47;;;2.63;;
18917;SDS011;9591;52.742;13.650;2023-04-28T06:01:26;6.03;;;3.47;;
18917;SDS011;9591;52.742;13.650;2023-04-28T06:04:13;11.73;;;7.93;;
18917;SDS011;9591;52.742;13.650;2023-04-28T06:07:00;7.17;;;4.80;;
18917;SDS011;9591;52.742;13.650;2023-04-28T06:09:51;6.37;;;3.30;;
18917;SDS011;9591;52.742;13.650;2023-04-28T06:12:39;7.13;;;3.20;;
18917;SDS011;9591;52.742;13.650;2023-04-28T06:15:26;5.40;;;3.20;;
18917;SDS011;9591;52.742;13.650;2023-04-28T06:18:13;6.50;;;3.30;;
18917;SDS011;9591;52.742;13.650;2023-04-28T06:21:01;11.73;;;3.20;;
18917;SDS011;9591;52.742;13.650;2023-04-28T06:23:47;6.33;;;2.80;;
18917;SDS011;9591;52.742;13.650;2023-04-28T06:26:34;7.10;;;2.93;;
18917;SDS011;9591;52.742;13.650;2023-04-28T06:29:22;5.37;;;2.90;;
18917;SDS011;9591;52.742;13.650;2023-04-28T06:32:09;5.30;;;2.60;;
18917;SDS011;9591;52.742;13.650;2023-04-28T06:34:56;7.67;;;3.20;;
18917;SDS011;9591;52.742;13.650;2023-04-28T06:37:43;4.13;;;2.60;;
18917;SDS011;9591;52.742;13.650;2023-04-28T06:40:32;3.10;;;2.77;;
18917;SDS011;9591;52.742;13.650;2023-04-28T06:43:19;5.00;;;3.07;;
18917;SDS011;9591;52.742;13.650;2023-04-28T06:46:27;4.57;;;2.80;;
18917;SDS011;9591;52.742;13.650;2023-04-28T06:49:14;5.60;;;3.00;;
18917;SDS011;9591;52.742;13.650;2023-04-28T06:52:01;6.57;;;2.50;;
18917;SDS011;9591;52.742;13.650;2023-04-28T06:54:48;4.27;;;2.90;;
18917;SDS011;9591;52.742;13.650;2023-04-28T06:57:35;5.23;;;2.47;;
18917;SDS011;9591;52.742;13.650;2023-04-28T07:00:23;3.37;;;2.63;;
18917;SDS011;9591;52.742;13.650;2023-04-28T07:03:11;6.50;;;2.70;;
18917;SDS011;9591;52.742;13.650;2023-04-28T07:05:58;5.67;;;2.93;;
18917;SDS011;9591;52.742;13.650;2023-04-28T07:08:45;6.57;;;2.53;;
18917;SDS011;9591;52.742;13.650;2023-04-28T07:11:32;8.03;;;2.83;;
18917;SDS011;9591;52.742;13.650;2023-04-28T07:14:19;5.70;;;2.43;;
18917;SDS011;9591;52.742;13.650;2023-04-28T07:17:06;7.60;;;2.27;;
18917;SDS011;9591;52.742;13.650;2023-04-28T07:19:54;4.70;;;2.37;;
18917;SDS011;9591;52.742;13.650;2023-04-28T07:22:41;4.80;;;1.67;;
18917;SDS011;9591;52.742;13.650;2023-04-28T07:25:27;4.43;;;2.30;;
18917;SDS011;9591;52.742;13.650;2023-04-28T07:28:14;5.93;;;2.77;;
18917;SDS011;9591;52.742;13.650;2023-04-28T07:31:01;3.70;;;2.60;;
18917;SDS011;9591;52.742;13.650;2023-04-28T07:33:48;3.83;;;2.37;;
18917;SDS011;9591;52.742;13.650;2023-04-28T07:36:36;6.37;;;2.73;;
18917;SDS011;9591;52.742;13.650;2023-04-28T07:39:23;2.93;;;1.93;;
18917;SDS011;9591;52.742;13.650;2023-04-28T07:42:10;8.10;;;2.57;;
18917;SDS011;9591;52.742;13.650;2023-04-28T07:44:56;4.20;;;2.23;;
18917;SDS011;9591;52.742;13.650;2023-04-28T07:47:43;7.23;;;2.47;;
18917;SDS011;9591;52.742;13.650;2023-04-28T07:50:30;6.33;;;2.50;;
18917;SDS011;9591;52.742;13.650;2023-04-28T07:53:18;3.57;;;2.57;;
18917;SDS011;9591;52.742;13.650;2023-04-28T07:56:05;5.37;;;2.20;;
18917;SDS011;9591;52.742;13.650;2023-04-28T07:58:51;4.03;;;2.33;;
18917;SDS011;9591;52.742;13.650;2023-04-28T08:01:38;5.27;;;2.30;;
18917;SDS011;9591;52.742;13.650;2023-04-28T08:04:25;7.97;;;2.87;;
18917;SDS011;9591;52.742;13.650;2023-04-28T08:07:12;4.57;;;2.63;;
18917;SDS011;9591;52.742;13.650;2023-04-28T08:10:00;5.00;;;3.13;;
18917;SDS011;9591;52.742;13.650;2023-04-28T08:12:47;6.40;;;2.47;;
18917;SDS011;9591;52.742;13.650;2023-04-28T08:15:34;3.70;;;2.50;;
18917;SDS011;9591;52.742;13.650;2023-04-28T08:18:21;6.13;;;3.20;;
18917;SDS011;9591;52.742;13.650;2023-04-28T08:21:08;3.93;;;2.90;;
18917;SDS011;9591;52.742;13.650;2023-04-28T08:23:55;9.17;;;3.13;;
18917;SDS011;9591;52.742;13.650;2023-04-28T08:26:43;8.13;;;3.43;;
18917;SDS011;9591;52.742;13.650;2023-04-28T08:29:30;6.80;;;3.73;;
18917;SDS011;9591;52.742;13.650;2023-04-28T08:32:17;7.07;;;3.13;;
18917;SDS011;9591;52.742;13.650;2023-04-28T08:35:04;5.07;;;3.27;;
18917;SDS011;9591;52.742;13.650;2023-04-28T08:37:52;5.30;;;3.07;;
18917;SDS011;9591;52.742;13.650;2023-04-28T08:40:39;5.77;;;3.07;;
18917;SDS011;9591;52.742;13.650;2023-04-28T08:43:28;10.00;;;3.27;;
18917;SDS011;9591;52.742;13.650;2023-04-28T08:46:15;6.93;;;3.37;;
18917;SDS011;9591;52.742;13.650;2023-04-28T08:49:03;4.77;;;3.37;;
18917;SDS011;9591;52.742;13.650;2023-04-28T08:51:54;6.10;;;3.13;;
18917;SDS011;9591;52.742;13.650;2023-04-28T08:54:44;5.10;;;3.30;;
18917;SDS011;9591;52.742;13.650;2023-04-28T08:57:38;4.97;;;2.80;;
18917;SDS011;9591;52.742;13.650;2023-04-28T09:00:30;7.80;;;3.50;;
18917;SDS011;9591;52.742;13.650;2023-04-28T09:03:17;3.93;;;2.70;;
18917;SDS011;9591;52.742;13.650;2023-04-28T09:06:03;5.50;;;2.70;;
18917;SDS011;9591;52.742;13.650;2023-04-28T09:08:50;4.63;;;3.03;;
18917;SDS011;9591;52.742;13.650;2023-04-28T09:11:44;5.70;;;3.27;;
18917;SDS011;9591;52.742;13.650;2023-04-28T09:14:36;4.53;;;3.00;;
18917;SDS011;9591;52.742;13.650;2023-04-28T09:17:25;5.57;;;3.37;;
18917;SDS011;9591;52.742;13.650;2023-04-28T09:20:18;6.27;;;3.10;;
18917;SDS011;9591;52.742;13.650;2023-04-28T09:23:11;5.20;;;2.90;;
18917;SDS011;9591;52.742;13.650;2023-04-28T09:26:00;6.03;;;2.97;;
18917;SDS011;9591;52.742;13.650;2023-04-28T09:28:49;6.20;;;2.97;;
18917;SDS011;9591;52.742;13.650;2023-04-28T09:31:35;17.33;;;3.60;;
18917;SDS011;9591;52.742;13.650;2023-04-28T09:34:26;6.47;;;3.43;;
18917;SDS011;9591;52.742;13.650;2023-04-28T09:37:29;6.03;;;3.40;;
18917;SDS011;9591;52.742;13.650;2023-04-28T09:40:16;3.27;;;2.97;;
18917;SDS011;9591;52.742;13.650;2023-04-28T09:43:05;6.17;;;3.43;;
18917;SDS011;9591;52.742;13.650;2023-04-28T09:46:08;7.93;;;3.70;;
18917;SDS011;9591;52.742;13.650;2023-04-28T09:48:59;7.83;;;3.80;;
18917;SDS011;9591;52.742;13.650;2023-04-28T09:51:48;5.93;;;3.73;;
18917;SDS011;9591;52.742;13.650;2023-04-28T09:54:35;7.83;;;3.40;;
18917;SDS011;9591;52.742;13.650;2023-04-28T09:57:22;5.27;;;3.53;;
18917;SDS011;9591;52.742;13.650;2023-04-28T10:00:09;6.47;;;4.57;;
18917;SDS011;9591;52.742;13.650;2023-04-28T10:02:56;6.63;;;3.53;;
18917;SDS011;9591;52.742;13.650;2023-04-28T10:05:44;8.80;;;3.90;;
18917;SDS011;9591;52.742;13.650;2023-04-28T10:08:33;8.93;;;3.87;;
18917;SDS011;9591;52.742;13.650;2023-04-28T10:11:20;12.87;;;4.33;;
18917;SDS011;9591;52.742;13.650;2023-04-28T10:14:07;8.10;;;3.50;;
18917;SDS011;9591;52.742;13.650;2023-04-28T10:16:54;8.50;;;3.57;;
18917;SDS011;9591;52.742;13.650;2023-04-28T10:19:44;7.20;;;3.93;;
18917;SDS011;9591;52.742;13.650;2023-04-28T10:22:36;6.03;;;3.90;;
18917;SDS011;9591;52.742;13.650;2023-04-28T10:25:38;9.07;;;3.70;;
18917;SDS011;9591;52.742;13.650;2023-04-28T10:28:28;12.67;;;4.20;;
18917;SDS011;9591;52.742;13.650;2023-04-28T10:31:15;9.20;;;3.67;;
18917;SDS011;9591;52.742;13.650;2023-04-28T10:37:15;9.53;;;4.40;;
18917;SDS011;9591;52.742;13.650;2023-04-28T10:43:35;7.13;;;4.13;;
18917;SDS011;9591;52.742;13.650;2023-04-28T10:46:24;8.27;;;3.97;;
18917;SDS011;9591;52.742;13.650;2023-04-28T10:49:11;5.37;;;3.57;;
18917;SDS011;9591;52.742;13.650;2023-04-28T10:51:57;7.93;;;4.60;;
18917;SDS011;9591;52.742;13.650;2023-04-28T10:54:50;9.13;;;3.80;;
18917;SDS011;9591;52.742;13.650;2023-04-28T10:58:29;8.57;;;3.60;;
18917;SDS011;9591;52.742;13.650;2023-04-28T11:01:26;6.57;;;4.30;;
18917;SDS011;9591;52.742;13.650;2023-04-28T11:04:15;6.97;;;3.90;;
18917;SDS011;9591;52.742;13.650;2023-04-28T11:07:09;8.30;;;3.83;;
18917;SDS011;9591;52.742;13.650;2023-04-28T11:09:58;9.40;;;4.20;;
18917;SDS011;9591;52.742;13.650;2023-04-28T11:16:05;11.17;;;3.70;;
18917;SDS011;9591;52.742;13.650;2023-04-28T11:18:55;7.13;;;3.73;;
18917;SDS011;9591;52.742;13.650;2023-04-28T11:21:44;9.57;;;4.30;;
18917;SDS011;9591;52.742;13.650;2023-04-28T11:24:32;9.53;;;4.03;;
18917;SDS011;9591;52.742;13.650;2023-04-28T11:27:22;7.07;;;3.80;;
18917;SDS011;9591;52.742;13.650;2023-04-28T11:30:18;8.23;;;3.60;;
18917;SDS011;9591;52.742;13.650;2023-04-28T11:33:06;10.30;;;3.83;;
18917;SDS011;9591;52.742;13.650;2023-04-28T11:35:56;8.13;;;3.23;;
18917;SDS011;9591;52.742;13.650;2023-04-28T11:38:44;9.90;;;4.00;;
18917;SDS011;9591;52.742;13.650;2023-04-28T11:41:34;9.03;;;3.90;;
18917;SDS011;9591;52.742;13.650;2023-04-28T11:44:22;7.80;;;3.93;;
18917;SDS011;9591;52.742;13.650;2023-04-28T11:47:09;7.37;;;3.70;;
18917;SDS011;9591;52.742;13.650;2023-04-28T11:49:56;8.90;;;3.30;;
18917;SDS011;9591;52.742;13.650;2023-04-28T11:52:50;11.47;;;3.53;;
18917;SDS011;9591;52.742;13.650;2023-04-28T11:55:37;9.53;;;4.00;;
18917;SDS011;9591;52.742;13.650;2023-04-28T11:58:24;7.63;;;3.67;;
18917;SDS011;9591;52.742;13.650;2023-04-28T12:01:12;14.50;;;4.73;;
18917;SDS011;9591;52.742;13.650;2023-04-28T12:04:00;8.27;;;4.07;;
18917;SDS011;9591;52.742;13.650;2023-04-28T12:06:47;7.77;;;3.83;;
18917;SDS011;9591;52.742;13.650;2023-04-28T12:09:46;7.83;;;3.83;;
18917;SDS011;9591;52.742;13.650;2023-04-28T12:12:33;12.67;;;4.10;;
18917;SDS011;9591;52.742;13.650;2023-04-28T12:15:38;9.10;;;3.53;;
18917;SDS011;9591;52.742;13.650;2023-04-28T12:18:26;9.10;;;3.80;;
18917;SDS011;9591;52.742;13.650;2023-04-28T12:21:19;7.00;;;3.60;;
18917;SDS011;9591;52.742;13.650;2023-04-28T12:24:13;10.50;;;3.53;;
18917;SDS011;9591;52.742;13.650;2023-04-28T12:27:15;5.97;;;4.00;;
18917;SDS011;9591;52.742;13.650;2023-04-28T12:33:20;10.63;;;3.93;;
18917;SDS011;9591;52.742;13.650;2023-04-28T12:36:09;7.77;;;3.80;;
18917;SDS011;9591;52.742;13.650;2023-04-28T12:38:56;7.90;;;3.53;;
18917;SDS011;9591;52.742;13.650;2023-04-28T12:41:43;9.00;;;3.57;;
18917;SDS011;9591;52.742;13.650;2023-04-28T12:44:34;7.57;;;4.23;;
18917;SDS011;9591;52.742;13.650;2023-04-28T12:47:22;8.10;;;4.10;;
18917;SDS011;9591;52.742;13.650;2023-04-28T12:50:09;7.07;;;4.13;;
18917;SDS011;9591;52.742;13.650;2023-04-28T12:52:56;7.63;;;4.20;;
18917;SDS011;9591;52.742;13.650;2023-04-28T12:55:42;7.43;;;4.00;;
18917;SDS011;9591;52.742;13.650;2023-04-28T12:58:29;9.20;;;4.13;;
18917;SDS011;9591;52.742;13.650;2023-04-28T13:01:17;9.50;;;4.13;;
18917;SDS011;9591;52.742;13.650;2023-04-28T13:04:04;5.43;;;4.03;;
18917;SDS011;9591;52.742;13.650;2023-04-28T13:06:51;8.43;;;3.83;;
18917;SDS011;9591;52.742;13.650;2023-04-28T13:09:38;10.23;;;4.20;;
18917;SDS011;9591;52.742;13.650;2023-04-28T13:12:27;9.00;;;4.50;;
18917;SDS011;9591;52.742;13.650;2023-04-28T13:15:14;8.53;;;4.13;;
18917;SDS011;9591;52.742;13.650;2023-04-28T13:18:05;6.50;;;4.23;;
18917;SDS011;9591;52.742;13.650;2023-04-28T13:20:52;7.63;;;4.30;;
18917;SDS011;9591;52.742;13.650;2023-04-28T13:23:38;8.43;;;4.23;;
18917;SDS011;9591;52.742;13.650;2023-04-28T13:26:26;67.20;;;7.87;;
18917;SDS011;9591;52.742;13.650;2023-04-28T13:29:14;17.10;;;5.33;;
18917;SDS011;9591;52.742;13.650;2023-04-28T13:32:02;8.73;;;4.20;;
18917;SDS011;9591;52.742;13.650;2023-04-28T13:34:51;8.20;;;3.87;;
18917;SDS011;9591;52.742;13.650;2023-04-28T13:37:38;5.93;;;4.93;;
18917;SDS011;9591;52.742;13.650;2023-04-28T13:40:30;6.03;;;4.17;;
18917;SDS011;9591;52.742;13.650;2023-04-28T13:43:17;7.73;;;3.93;;
18917;SDS011;9591;52.742;13.650;2023-04-28T13:46:04;8.37;;;4.13;;
18917;SDS011;9591;52.742;13.650;2023-04-28T13:48:52;8.90;;;4.67;;
18917;SDS011;9591;52.742;13.650;2023-04-28T13:51:41;10.57;;;4.97;;
18917;SDS011;9591;52.742;13.650;2023-04-28T13:54:29;8.63;;;4.57;;
18917;SDS011;9591;52.742;13.650;2023-04-28T13:57:16;11.23;;;4.87;;
18917;SDS011;9591;52.742;13.650;2023-04-28T14:00:03;8.13;;;3.90;;
18917;SDS011;9591;52.742;13.650;2023-04-28T14:02:51;13.73;;;5.27;;
18917;SDS011;9591;52.742;13.650;2023-04-28T14:05:38;7.33;;;4.10;;
18917;SDS011;9591;52.742;13.650;2023-04-28T14:08:35;7.67;;;4.60;;
18917;SDS011;9591;52.742;13.650;2023-04-28T14:11:21;11.03;;;4.67;;
18917;SDS011;9591;52.742;13.650;2023-04-28T14:14:08;10.87;;;4.73;;
18917;SDS011;9591;52.742;13.650;2023-04-28T14:16:55;10.50;;;4.90;;
18917;SDS011;9591;52.742;13.650;2023-04-28T14:19:42;8.90;;;4.93;;
18917;SDS011;9591;52.742;13.650;2023-04-28T14:22:29;10.60;;;5.37;;
18917;SDS011;9591;52.742;13.650;2023-04-28T14:25:17;14.03;;;4.87;;
18917;SDS011;9591;52.742;13.650;2023-04-28T14:28:04;9.83;;;4.30;;
18917;SDS011;9591;52.742;13.650;2023-04-28T14:30:52;10.77;;;4.63;;
18917;SDS011;9591;52.742;13.650;2023-04-28T14:33:38;6.17;;;4.33;;
18917;SDS011;9591;52.742;13.650;2023-04-28T14:36:25;6.83;;;4.37;;
18917;SDS011;9591;52.742;13.650;2023-04-28T14:39:12;7.60;;;4.23;;
18917;SDS011;9591;52.742;13.650;2023-04-28T14:42:00;9.77;;;4.80;;
18917;SDS011;9591;52.742;13.650;2023-04-28T14:44:47;9.43;;;4.80;;
18917;SDS011;9591;52.742;13.650;2023-04-28T14:47:37;9.07;;;4.13;;
18917;SDS011;9591;52.742;13.650;2023-04-28T14:50:24;6.00;;;4.00;;
18917;SDS011;9591;52.742;13.650;2023-04-28T14:53:11;9.30;;;4.53;;
18917;SDS011;9591;52.742;13.650;2023-04-28T14:55:58;11.20;;;4.47;;
18917;SDS011;9591;52.742;13.650;2023-04-28T14:59:03;9.97;;;4.63;;
18917;SDS011;9591;52.742;13.650;2023-04-28T15:01:50;11.57;;;4.97;;
18917;SDS011;9591;52.742;13.650;2023-04-28T15:04:37;8.73;;;4.80;;
18917;SDS011;9591;52.742;13.650;2023-04-28T15:07:24;8.53;;;4.73;;
18917;SDS011;9591;52.742;13.650;2023-04-28T15:10:15;8.60;;;4.50;;
18917;SDS011;9591;52.742;13.650;2023-04-28T15:13:02;12.40;;;4.53;;
18917;SDS011;9591;52.742;13.650;2023-04-28T15:15:50;10.20;;;4.77;;
18917;SDS011;9591;52.742;13.650;2023-04-28T15:18:37;8.33;;;4.97;;
18917;SDS011;9591;52.742;13.650;2023-04-28T15:21:24;12.63;;;4.60;;
18917;SDS011;9591;52.742;13.650;2023-04-28T15:24:13;9.20;;;4.93;;
18917;SDS011;9591;52.742;13.650;2023-04-28T15:27:00;9.33;;;4.90;;
18917;SDS011;9591;52.742;13.650;2023-04-28T15:29:48;13.27;;;4.80;;
18917;SDS011;9591;52.742;13.650;2023-04-28T15:32:36;10.23;;;4.63;;
18917;SDS011;9591;52.742;13.650;2023-04-28T15:35:22;8.27;;;5.13;;
18917;SDS011;9591;52.742;13.650;2023-04-28T15:38:09;6.63;;;4.50;;
18917;SDS011;9591;52.742;13.650;2023-04-28T15:40:56;9.07;;;4.40;;
18917;SDS011;9591;52.742;13.650;2023-04-28T15:43:43;9.00;;;4.80;;
18917;SDS011;9591;52.742;13.650;2023-04-28T15:46:30;9.03;;;4.77;;
18917;SDS011;9591;52.742;13.650;2023-04-28T15:49:18;7.67;;;4.80;;
18917;SDS011;9591;52.742;13.650;2023-04-28T15:52:05;7.77;;;5.40;;
18917;SDS011;9591;52.742;13.650;2023-04-28T15:57:40;12.83;;;5.87;;
18917;SDS011;9591;52.742;13.650;2023-04-28T16:00:26;11.30;;;5.30;;
18917;SDS011;9591;52.742;13.650;2023-04-28T16:03:13;11.70;;;5.17;;
18917;SDS011;9591;52.742;13.650;2023-04-28T16:06:01;10.83;;;6.17;;
18917;SDS011;9591;52.742;13.650;2023-04-28T16:08:48;11.73;;;5.93;;
18917;SDS011;9591;52.742;13.650;2023-04-28T16:11:35;44.17;;;7.40;;
18917;SDS011;9591;52.742;13.650;2023-04-28T16:14:22;29.83;;;9.53;;
18917;SDS011;9591;52.742;13.650;2023-04-28T16:17:09;16.60;;;9.07;;
18917;SDS011;9591;52.742;13.650;2023-04-28T16:19:56;19.33;;;8.57;;
18917;SDS011;9591;52.742;13.650;2023-04-28T16:22:44;22.33;;;10.60;;
18917;SDS011;9591;52.742;13.650;2023-04-28T16:25:31;10.57;;;7.47;;
18917;SDS011;9591;52.742;13.650;2023-04-28T16:28:18;14.10;;;6.97;;
18917;SDS011;9591;52.742;13.650;2023-04-28T16:31:05;7.33;;;5.43;;
18917;SDS011;9591;52.742;13.650;2023-04-28T16:33:52;10.70;;;6.40;;
18917;SDS011;9591;52.742;13.650;2023-04-28T16:36:39;13.60;;;5.30;;
18917;SDS011;9591;52.742;13.650;2023-04-28T16:39:27;9.90;;;6.20;;
18917;SDS011;9591;52.742;13.650;2023-04-28T16:42:14;9.20;;;5.10;;
18917;SDS011;9591;52.742;13.650;2023-04-28T16:45:00;17.70;;;5.50;;
18917;SDS011;9591;52.742;13.650;2023-04-28T16:47:47;15.90;;;6.17;;
18917;SDS011;9591;52.742;13.650;2023-04-28T16:50:34;14.10;;;6.73;;
18917;SDS011;9591;52.742;13.650;2023-04-28T16:53:24;10.43;;;5.70;;
18917;SDS011;9591;52.742;13.650;2023-04-28T16:56:12;11.33;;;6.63;;
18917;SDS011;9591;52.742;13.650;2023-04-28T16:58:59;10.10;;;5.33;;
18917;SDS011;9591;52.742;13.650;2023-04-28T17:01:46;13.63;;;5.33;;
18917;SDS011;9591;52.742;13.650;2023-04-28T17:04:33;9.70;;;5.20;;
18917;SDS011;9591;52.742;13.650;2023-04-28T17:07:21;14.97;;;6.80;;
18917;SDS011;9591;52.742;13.650;2023-04-28T17:10:09;21.23;;;10.90;;
18917;SDS011;9591;52.742;13.650;2023-04-28T17:12:57;30.77;;;16.07;;